KPIE/PIE METAR and TAF weather

Enter ICAO airport designator
Station Type Date Time Source
KPIE METAR 2019/06/16 20:26 UTC NOAA

KPIE 162026Z 09010G21KT 060V140 10SM SCT090 25/21 A3003 RMK AO2 LTG DSNT NE-SE TSE11 T02500211


Station Type Date Time Source
KPIE Decoded METAR 2019/06/16 20:26 UTC NOAA

ST PETERSBURG/CLEARWATER, FL, United States (KPIE) 27-55N 82-41W 4M
Jun 16, 2019 - 04:26 PM EDT / 2019.06.16 2026 UTC
Wind: from the E (090 degrees) at 12 MPH (10 KT) gusting to 24 MPH (21 KT) (direction variable):0
Visibility: 10 mile(s):0
Sky conditions: partly cloudy
Weather: Lightning observed
Temperature: 77.0 F (25.0 C)
Dew Point: 70.0 F (21.1 C)
Relative Humidity: 78%
Pressure (altimeter): 30.03 in. Hg (1016 hPa)
ob: KPIE 162026Z 09010G21KT 060V140 10SM SCT090 25/21 A3003 RMK AO2 LTG DSNT NE-SE TSE11 T02500211
cycle: 20

Station Type Date Time Source
KPIE TAF 2019/06/16 18:24 UTC NOAA

TAF KPIE 161721Z 1618/1718 23008KT P6SM VCTS SCT030CB BKN080
TEMPO 1620/1624 VRB12G20KT 3SM TSRA BKN030CB
FM170300 13006KT P6SM SCT025 OVC250
FM170900 12005KT P6SM SCT015 BKN100

Example: see airport list